createdAt,value
2022-11-15T00:01:22.657Z,6.60
2022-11-15T00:03:57.616Z,6.70
2022-11-15T00:06:28.522Z,4.90
2022-11-15T00:08:59.343Z,7.70
2022-11-15T00:11:31.170Z,5.80
2022-11-15T00:14:05.401Z,5.10
2022-11-15T00:16:36.661Z,4.90
2022-11-15T00:19:08.247Z,7.90
2022-11-15T00:21:40.191Z,10.60
2022-11-15T00:24:11.690Z,5.40
2022-11-15T00:26:43.119Z,5.90
2022-11-15T00:29:15.082Z,5.50
2022-11-15T00:31:46.743Z,5.20
2022-11-15T00:34:19.774Z,10.50
2022-11-15T00:36:50.886Z,4.90
2022-11-15T00:39:21.780Z,4.70
2022-11-15T00:41:52.957Z,3.90
2022-11-15T00:44:25.156Z,4.70
2022-11-15T00:46:56.627Z,4.70
2022-11-15T00:49:27.567Z,5.00
2022-11-15T00:51:59.274Z,5.50
2022-11-15T00:54:31.011Z,4.70
2022-11-15T00:57:02.533Z,5.60
2022-11-15T00:59:34.510Z,6.00
2022-11-15T01:02:06.009Z,6.00
2022-11-15T01:04:38.011Z,5.60
2022-11-15T01:07:09.347Z,4.90
2022-11-15T01:09:41.170Z,5.00
2022-11-15T01:12:12.898Z,5.40
2022-11-15T01:17:13.757Z,8.20
2022-11-15T01:19:45.201Z,6.30
2022-11-15T01:22:17.453Z,7.20
2022-11-15T01:24:48.617Z,5.50
2022-11-15T01:27:19.481Z,6.90
2022-11-15T01:29:51.458Z,7.40
2022-11-15T01:32:22.475Z,5.50
2022-11-15T01:34:54.588Z,5.70
2022-11-15T01:37:26.599Z,6.60
2022-11-15T01:39:57.269Z,8.80
2022-11-15T01:42:28.297Z,4.70
2022-11-15T01:45:00.372Z,5.70
2022-11-15T01:47:35.508Z,4.70
2022-11-15T01:50:10.508Z,5.10
2022-11-15T01:52:43.840Z,7.60
2022-11-15T01:55:20.227Z,6.90
2022-11-15T01:57:54.628Z,6.30
2022-11-15T02:00:26.676Z,6.10
2022-11-15T02:02:58.397Z,6.50
2022-11-15T02:05:30.055Z,7.50
2022-11-15T02:08:05.661Z,6.00
2022-11-15T02:10:37.015Z,4.90
2022-11-15T02:13:09.829Z,6.50
2022-11-15T02:15:47.778Z,7.10
2022-11-15T02:18:28.956Z,6.30
2022-11-15T02:21:11.940Z,5.10
2022-11-15T02:24:25.257Z,5.00
2022-11-15T02:30:05.039Z,5.90
2022-11-15T02:32:42.591Z,5.50
2022-11-15T02:35:24.383Z,6.90
2022-11-15T02:38:00.967Z,6.30
2022-11-15T02:40:38.983Z,7.60
2022-11-15T02:43:32.870Z,5.30
2022-11-15T02:46:13.878Z,5.60
2022-11-15T02:48:47.511Z,11.50
2022-11-15T02:51:20.161Z,6.20
2022-11-15T02:53:51.417Z,5.80
2022-11-15T02:56:22.925Z,7.00
2022-11-15T02:59:12.865Z,5.80
2022-11-15T03:02:00.380Z,6.90
2022-11-15T03:04:42.126Z,5.70
2022-11-15T03:07:20.452Z,5.70
2022-11-15T03:09:59.058Z,8.40
2022-11-15T03:12:39.321Z,7.20
2022-11-15T03:15:15.367Z,5.60
2022-11-15T03:17:52.178Z,7.70
2022-11-15T03:20:24.564Z,5.50
2022-11-15T03:25:30.157Z,6.00
2022-11-15T03:28:05.145Z,7.50
2022-11-15T03:30:40.558Z,5.50
2022-11-15T03:33:12.860Z,7.20
2022-11-15T03:38:20.200Z,6.10
2022-11-15T03:40:57.873Z,4.90
2022-11-15T03:43:35.143Z,7.00
2022-11-15T03:46:10.591Z,5.20
2022-11-15T03:48:49.852Z,7.10
2022-11-15T03:51:22.103Z,6.80
2022-11-15T03:56:21.723Z,8.10
2022-11-15T03:58:52.890Z,6.10
2022-11-15T04:01:24.490Z,6.40
2022-11-15T04:03:56.077Z,6.60
2022-11-15T04:06:28.029Z,7.30
2022-11-15T04:08:59.164Z,8.40
2022-11-15T04:11:30.657Z,7.90
2022-11-15T04:14:01.425Z,6.60
2022-11-15T04:16:33.227Z,6.50
2022-11-15T04:19:21.621Z,6.20
2022-11-15T04:22:09.411Z,6.10
2022-11-15T04:24:40.722Z,5.40
2022-11-15T04:27:14.876Z,7.50
2022-11-15T04:29:46.318Z,7.50
2022-11-15T04:32:17.261Z,8.00
2022-11-15T04:34:48.606Z,8.10
2022-11-15T04:37:20.042Z,6.40
2022-11-15T04:39:51.031Z,7.20
2022-11-15T04:42:22.960Z,6.50
2022-11-15T04:44:54.040Z,6.70
2022-11-15T04:47:25.752Z,7.40
2022-11-15T04:49:57.357Z,6.90
2022-11-15T04:52:28.818Z,8.70
2022-11-15T04:55:03.626Z,5.20
2022-11-15T04:57:38.097Z,7.30
2022-11-15T05:00:12.517Z,6.20
2022-11-15T05:03:02.316Z,6.40
2022-11-15T05:05:33.141Z,6.40
2022-11-15T05:08:04.754Z,6.80
2022-11-15T05:10:37.657Z,7.70
2022-11-15T05:13:08.911Z,7.20
2022-11-15T05:15:40.683Z,6.30
2022-11-15T05:18:17.251Z,7.20
2022-11-15T05:20:52.825Z,5.10
2022-11-15T05:23:24.269Z,6.40
2022-11-15T05:25:56.189Z,7.60
2022-11-15T05:28:27.045Z,9.20
2022-11-15T05:30:57.846Z,5.70
2022-11-15T05:33:28.876Z,6.50
2022-11-15T05:36:07.167Z,6.70
2022-11-15T05:38:38.482Z,6.50
2022-11-15T05:41:11.892Z,10.90
2022-11-15T05:43:45.136Z,8.40
2022-11-15T05:46:17.161Z,6.70
2022-11-15T05:48:50.689Z,6.70
2022-11-15T05:51:25.671Z,10.40
2022-11-15T05:53:59.547Z,8.70
2022-11-15T05:56:32.505Z,6.10
2022-11-15T05:59:04.891Z,6.50
2022-11-15T06:04:05.418Z,7.00
2022-11-15T06:06:38.899Z,5.90
2022-11-15T06:09:10.105Z,8.20
2022-11-15T06:11:42.112Z,7.80
2022-11-15T06:14:13.748Z,9.70
2022-11-15T06:16:45.178Z,9.60
2022-11-15T06:19:16.732Z,8.80
2022-11-15T06:24:18.385Z,5.50
2022-11-15T06:26:52.661Z,7.50
2022-11-15T06:29:23.831Z,7.00
2022-11-15T06:31:54.934Z,9.60
2022-11-15T06:34:25.885Z,8.30
2022-11-15T06:36:57.096Z,7.50
2022-11-15T06:39:27.810Z,6.90
2022-11-15T06:41:58.680Z,10.60
2022-11-15T06:44:29.978Z,7.70
2022-11-15T06:47:01.026Z,11.20
2022-11-15T06:49:32.096Z,7.80
2022-11-15T06:52:03.630Z,14.90
2022-11-15T06:54:34.768Z,9.80
2022-11-15T06:57:06.044Z,7.10
2022-11-15T06:59:40.466Z,6.60
2022-11-15T07:02:15.800Z,9.70
2022-11-15T07:04:47.152Z,14.00
2022-11-15T07:07:18.822Z,8.50
2022-11-15T07:09:49.628Z,9.00
2022-11-15T07:12:21.234Z,8.60
2022-11-15T07:14:52.574Z,10.00
2022-11-15T07:17:23.642Z,9.90
2022-11-15T07:19:54.939Z,8.60
2022-11-15T07:22:27.036Z,9.60
2022-11-15T07:24:58.045Z,9.60
2022-11-15T07:27:31.236Z,9.00
2022-11-15T07:30:02.464Z,10.00
2022-11-15T07:32:33.627Z,9.30
2022-11-15T07:35:05.162Z,9.20
2022-11-15T07:37:35.924Z,7.50
2022-11-15T07:40:06.923Z,8.90
2022-11-15T07:42:59.187Z,8.30
2022-11-15T07:45:30.774Z,12.30
2022-11-15T07:48:02.984Z,15.70
2022-11-15T07:50:34.152Z,9.10
2022-11-15T07:53:06.166Z,10.90
2022-11-15T07:55:37.263Z,10.30
2022-11-15T07:58:12.684Z,9.10
2022-11-15T08:00:44.470Z,11.30
2022-11-15T08:03:16.844Z,7.60
2022-11-15T08:05:54.170Z,10.70
2022-11-15T08:08:25.148Z,10.40
2022-11-15T08:10:55.852Z,9.10
2022-11-15T08:13:26.777Z,8.30
2022-11-15T08:16:01.242Z,9.10
2022-11-15T08:18:32.625Z,9.70
2022-11-15T08:21:05.583Z,11.40
2022-11-15T08:23:38.979Z,11.80
2022-11-15T08:26:10.820Z,9.80
2022-11-15T08:28:42.614Z,7.40
2022-11-15T08:31:19.729Z,9.00
2022-11-15T08:33:51.202Z,9.80
2022-11-15T08:36:22.912Z,12.30
2022-11-15T08:38:53.824Z,11.30
2022-11-15T08:41:34.319Z,14.30
2022-11-15T08:44:06.121Z,10.30
2022-11-15T08:46:37.765Z,14.50
2022-11-15T08:49:10.115Z,12.30
2022-11-15T08:51:41.091Z,10.40
2022-11-15T08:54:12.752Z,12.60
2022-11-15T08:56:43.666Z,11.50
2022-11-15T08:59:15.105Z,13.10
2022-11-15T09:01:46.152Z,13.30
2022-11-15T09:04:17.265Z,13.30
2022-11-15T09:06:48.856Z,14.80
2022-11-15T09:09:19.850Z,14.30
2022-11-15T09:11:51.270Z,11.10
2022-11-15T09:14:22.587Z,12.80
2022-11-15T09:16:53.987Z,13.50
2022-11-15T09:19:25.474Z,14.00
2022-11-15T09:21:56.409Z,17.80
2022-11-15T09:24:28.061Z,15.20
2022-11-15T09:26:58.677Z,14.40
2022-11-15T09:29:29.822Z,15.40
2022-11-15T09:32:01.558Z,15.50
2022-11-15T09:34:32.328Z,22.40
2022-11-15T09:37:03.517Z,17.20
2022-11-15T09:39:35.529Z,14.40
2022-11-15T09:42:35.581Z,17.50
2022-11-15T09:45:23.176Z,17.10
2022-11-15T09:48:13.702Z,13.00
2022-11-15T09:50:43.899Z,16.30
2022-11-15T09:52:56.484Z,17.60
2022-11-15T09:55:13.376Z,16.60
2022-11-15T09:57:33.282Z,14.90
2022-11-15T10:00:30.893Z,14.00
2022-11-15T10:02:57.154Z,15.00
2022-11-15T10:05:12.319Z,14.00
2022-11-15T10:07:29.337Z,14.20
2022-11-15T10:09:48.927Z,15.60
2022-11-15T10:12:01.993Z,13.80
2022-11-15T10:14:19.606Z,16.90
2022-11-15T10:17:04.582Z,14.60
2022-11-15T10:19:25.831Z,16.60
2022-11-15T10:21:50.139Z,14.90
2022-11-15T10:24:02.761Z,14.00
2022-11-15T10:26:20.140Z,14.20
2022-11-15T10:28:34.690Z,11.70
2022-11-15T10:30:49.829Z,16.80
2022-11-15T10:33:30.399Z,18.30
2022-11-15T10:35:43.585Z,17.20
2022-11-15T10:37:56.086Z,13.80
2022-11-15T10:40:19.499Z,18.60
2022-11-15T10:42:35.297Z,17.90
2022-11-15T10:44:50.649Z,21.10
2022-11-15T10:47:39.536Z,19.30
2022-11-15T10:50:01.556Z,20.80
2022-11-15T10:52:22.670Z,17.90
2022-11-15T10:54:39.024Z,19.80
2022-11-15T10:56:56.621Z,15.40
2022-11-15T10:59:09.200Z,21.80
2022-11-15T11:01:26.010Z,16.80
2022-11-15T11:03:42.645Z,19.70
2022-11-15T11:06:07.394Z,14.80
2022-11-15T11:08:30.387Z,19.30
2022-11-15T11:10:51.524Z,19.90
2022-11-15T11:15:32.176Z,17.20
2022-11-15T11:18:01.705Z,16.10
2022-11-15T11:20:23.114Z,15.90
2022-11-15T11:22:41.887Z,16.30
2022-11-15T11:25:07.056Z,19.30
2022-11-15T11:27:39.662Z,16.70
2022-11-15T11:30:10.540Z,20.80
2022-11-15T11:32:38.548Z,15.70
2022-11-15T11:35:02.227Z,18.60
2022-11-15T11:37:25.125Z,17.40
2022-11-15T11:39:50.782Z,18.20
2022-11-15T11:42:15.461Z,20.90
2022-11-15T11:44:38.002Z,20.40
2022-11-15T11:47:02.902Z,19.20
2022-11-15T11:49:21.276Z,19.00
2022-11-15T11:51:42.827Z,16.40
2022-11-15T11:54:02.081Z,16.80
2022-11-15T11:56:27.173Z,17.40
2022-11-15T11:58:47.066Z,15.30
2022-11-15T12:01:09.916Z,21.30
2022-11-15T12:03:32.953Z,15.90
2022-11-15T12:05:48.353Z,21.60
2022-11-15T12:08:07.451Z,24.60
2022-11-15T12:10:28.198Z,18.90
2022-11-15T12:12:47.139Z,19.80
2022-11-15T12:15:05.558Z,19.80
2022-11-15T12:17:20.782Z,24.80
2022-11-15T12:19:33.667Z,23.80
2022-11-15T12:21:51.662Z,20.40
2022-11-15T12:24:11.042Z,20.20
2022-11-15T12:26:28.185Z,19.70
2022-11-15T12:29:05.914Z,16.70
2022-11-15T12:31:23.650Z,20.60
2022-11-15T12:33:41.792Z,17.70
2022-11-15T12:36:05.569Z,24.00
2022-11-15T12:38:39.342Z,16.50
2022-11-15T12:41:27.192Z,22.60
2022-11-15T12:43:46.954Z,19.90
2022-11-15T12:46:05.670Z,22.80
2022-11-15T12:49:02.291Z,20.60
2022-11-15T12:51:15.388Z,19.60
2022-11-15T12:53:38.738Z,17.00
2022-11-15T12:56:27.616Z,23.10
2022-11-15T12:58:51.175Z,19.20
2022-11-15T13:01:04.144Z,16.30
2022-11-15T13:03:31.799Z,19.20
2022-11-15T13:06:13.803Z,16.20
2022-11-15T13:08:51.120Z,17.80
2022-11-15T13:11:26.770Z,17.90
2022-11-15T13:13:51.289Z,16.40
2022-11-15T13:16:05.781Z,17.10
2022-11-15T13:18:36.991Z,18.60
2022-11-15T13:20:51.645Z,20.40
2022-11-15T13:23:14.458Z,19.80
2022-11-15T13:26:03.457Z,22.20
2022-11-15T13:28:35.416Z,17.20
2022-11-15T13:30:56.513Z,20.00
2022-11-15T13:33:20.124Z,17.50
2022-11-15T13:35:40.677Z,18.10
2022-11-15T13:37:54.081Z,16.00
2022-11-15T13:40:32.301Z,17.70
2022-11-15T13:42:46.017Z,24.80
2022-11-15T13:45:07.554Z,16.50
2022-11-15T13:47:23.816Z,22.20
2022-11-15T13:49:39.892Z,19.40
2022-11-15T13:51:55.775Z,16.50
2022-11-15T13:54:12.917Z,16.60
2022-11-15T13:56:28.091Z,18.40
2022-11-15T13:58:44.362Z,17.00
2022-11-15T14:01:07.065Z,18.20
2022-11-15T14:03:26.306Z,15.80
2022-11-15T14:05:39.216Z,16.60
2022-11-15T14:08:04.077Z,18.80
2022-11-15T14:10:34.452Z,14.10
2022-11-15T14:12:57.067Z,16.60
2022-11-15T14:15:30.220Z,16.90
2022-11-15T14:17:49.832Z,15.60
2022-11-15T14:20:03.297Z,15.20
2022-11-15T14:22:24.881Z,16.50
2022-11-15T14:24:39.152Z,15.70
2022-11-15T14:26:52.378Z,15.20
2022-11-15T14:29:29.171Z,22.00
2022-11-15T14:31:44.063Z,14.90
2022-11-15T14:33:57.332Z,15.50
2022-11-15T14:36:15.701Z,14.50
2022-11-15T14:38:30.717Z,14.00
2022-11-15T14:40:43.687Z,18.90
2022-11-15T14:42:56.673Z,20.40
2022-11-15T14:45:13.452Z,15.30
2022-11-15T14:47:26.372Z,18.90
2022-11-15T14:49:38.947Z,17.40
2022-11-15T14:51:51.850Z,16.70
2022-11-15T14:54:04.356Z,14.40
2022-11-15T14:56:18.268Z,16.90
2022-11-15T14:58:31.188Z,17.20
2022-11-15T15:00:45.875Z,16.60
2022-11-15T15:02:59.600Z,15.10
2022-11-15T15:05:21.201Z,17.50
2022-11-15T15:07:34.072Z,16.00
2022-11-15T15:09:50.270Z,20.30
2022-11-15T15:12:06.541Z,22.10
2022-11-15T15:14:20.838Z,17.20
2022-11-15T15:16:35.307Z,13.60
2022-11-15T15:18:48.566Z,15.80
2022-11-15T15:21:08.920Z,19.50
2022-11-15T15:23:26.062Z,15.10
2022-11-15T15:25:40.238Z,16.70
2022-11-15T15:27:53.735Z,14.40
2022-11-15T15:30:06.767Z,18.70
2022-11-15T15:32:19.801Z,16.80
2022-11-15T15:34:32.370Z,16.90
2022-11-15T15:36:45.452Z,16.00
2022-11-15T15:38:58.266Z,16.40
2022-11-15T15:41:11.971Z,19.20
2022-11-15T15:43:25.147Z,15.50
2022-11-15T15:45:40.141Z,17.20
2022-11-15T15:47:54.084Z,20.60
2022-11-15T15:50:09.011Z,13.80
2022-11-15T15:52:22.170Z,17.10
2022-11-15T15:54:35.125Z,14.50
2022-11-15T15:56:50.971Z,17.70
2022-11-15T15:59:06.696Z,16.50
2022-11-15T16:01:19.359Z,15.50
2022-11-15T16:03:32.385Z,15.60
2022-11-15T16:05:45.227Z,13.70
2022-11-15T16:07:58.085Z,18.00
2022-11-15T16:10:25.273Z,12.70
2022-11-15T16:12:38.818Z,13.90
2022-11-15T16:14:51.557Z,10.60
2022-11-15T16:17:04.453Z,14.40
2022-11-15T16:19:17.461Z,13.00
2022-11-15T16:21:30.500Z,13.10
2022-11-15T16:23:43.431Z,10.80
2022-11-15T16:25:57.547Z,12.20
2022-11-15T16:28:16.586Z,13.10
2022-11-15T16:30:29.381Z,10.60
2022-11-15T16:32:42.008Z,12.80
2022-11-15T16:34:54.675Z,15.90
2022-11-15T16:37:07.342Z,11.70
2022-11-15T16:39:22.031Z,12.10
2022-11-15T16:41:34.515Z,9.60
2022-11-15T16:43:47.436Z,12.40
2022-11-15T16:46:01.002Z,10.70
2022-11-15T16:48:23.387Z,13.20
2022-11-15T16:50:42.640Z,11.50
2022-11-15T16:52:57.388Z,10.80
2022-11-15T16:55:10.476Z,10.90
2022-11-15T16:57:23.064Z,11.30
2022-11-15T16:59:38.333Z,9.50
2022-11-15T17:01:53.849Z,9.50
2022-11-15T17:04:14.655Z,10.40
2022-11-15T17:06:28.347Z,9.90
2022-11-15T17:08:40.875Z,9.30
2022-11-15T17:10:54.172Z,9.90
2022-11-15T17:13:07.004Z,11.70
2022-11-15T17:15:20.260Z,10.70
2022-11-15T17:17:33.653Z,12.50
2022-11-15T17:19:46.804Z,10.10
2022-11-15T17:21:59.552Z,10.40
2022-11-15T17:24:13.541Z,7.80
2022-11-15T17:26:31.192Z,10.60
2022-11-15T17:28:46.904Z,9.90
2022-11-15T17:30:59.691Z,11.10
2022-11-15T17:33:13.184Z,13.30
2022-11-15T17:35:26.065Z,9.40
2022-11-15T17:37:39.170Z,10.40
2022-11-15T17:39:52.236Z,12.40
2022-11-15T17:42:05.222Z,11.10
2022-11-15T17:44:18.107Z,12.00
2022-11-15T17:46:31.508Z,10.40
2022-11-15T17:48:44.877Z,10.80
2022-11-15T17:51:04.339Z,9.50
2022-11-15T17:53:16.868Z,8.30
2022-11-15T17:55:29.536Z,10.70
2022-11-15T17:57:42.149Z,10.30
2022-11-15T17:59:55.101Z,9.80
2022-11-15T18:02:08.783Z,11.70
2022-11-15T18:04:21.618Z,9.10
2022-11-15T18:06:35.888Z,10.40
2022-11-15T18:08:50.255Z,10.20
2022-11-15T18:11:11.195Z,9.60
2022-11-15T18:13:24.361Z,11.90
2022-11-15T18:15:37.181Z,9.20
2022-11-15T18:17:50.284Z,9.60
2022-11-15T18:20:03.744Z,11.30
2022-11-15T18:22:16.655Z,9.40
2022-11-15T18:24:31.188Z,10.00
2022-11-15T18:26:44.607Z,9.30
2022-11-15T18:28:58.145Z,9.90
2022-11-15T18:31:18.848Z,8.00
2022-11-15T18:33:32.703Z,13.20
2022-11-15T18:35:45.431Z,8.10
2022-11-15T18:37:58.235Z,8.60
2022-11-15T18:40:12.602Z,9.20
2022-11-15T18:42:25.216Z,8.70
2022-11-15T18:44:37.699Z,9.40
2022-11-15T18:46:50.606Z,9.50
2022-11-15T18:49:05.196Z,7.70
2022-11-15T18:51:20.042Z,10.60
2022-11-15T18:53:32.879Z,10.60
2022-11-15T18:55:46.942Z,8.40
2022-11-15T18:58:00.109Z,7.60
2022-11-15T19:00:15.288Z,10.50
2022-11-15T19:02:28.874Z,8.20
2022-11-15T19:04:41.634Z,10.40
2022-11-15T19:06:55.830Z,9.20
2022-11-15T19:09:09.390Z,13.20
2022-11-15T19:11:25.130Z,11.50
2022-11-15T19:13:37.760Z,11.60
2022-11-15T19:15:51.006Z,9.20
2022-11-15T19:18:03.580Z,7.80
2022-11-15T19:20:17.133Z,9.60
2022-11-15T19:22:30.284Z,10.00
2022-11-15T19:24:42.879Z,8.60
2022-11-15T19:26:56.771Z,9.40
2022-11-15T19:29:11.325Z,9.70
2022-11-15T19:31:24.736Z,10.50
2022-11-15T19:33:38.223Z,8.70
2022-11-15T19:35:51.156Z,8.10
2022-11-15T19:38:05.363Z,9.80
2022-11-15T19:40:19.007Z,10.50
2022-11-15T19:42:31.643Z,9.00
2022-11-15T19:44:44.455Z,9.40
2022-11-15T19:46:57.863Z,10.00
2022-11-15T19:49:11.736Z,9.00
2022-11-15T19:51:25.570Z,8.50
2022-11-15T19:53:38.961Z,8.70
2022-11-15T19:56:00.949Z,10.80
2022-11-15T19:58:13.887Z,8.60
2022-11-15T20:00:27.248Z,8.90
2022-11-15T20:02:40.021Z,9.30
2022-11-15T20:04:53.102Z,9.00
2022-11-15T20:07:05.763Z,8.70
2022-11-15T20:09:21.495Z,10.10
2022-11-15T20:11:35.196Z,9.40
2022-11-15T20:13:48.576Z,8.50
2022-11-15T20:16:01.405Z,10.60
2022-11-15T20:18:14.250Z,8.30
2022-11-15T20:20:27.285Z,9.00
2022-11-15T20:22:40.159Z,11.70
2022-11-15T20:24:53.076Z,8.90
2022-11-15T20:27:06.639Z,9.80
2022-11-15T20:29:19.168Z,9.70
2022-11-15T20:31:31.974Z,9.70
2022-11-15T20:33:45.364Z,13.90
2022-11-15T20:35:58.545Z,9.40
2022-11-15T20:38:12.271Z,11.80
2022-11-15T20:40:25.004Z,10.80
2022-11-15T20:42:37.583Z,9.50
2022-11-15T20:44:50.297Z,10.80
2022-11-15T20:47:03.100Z,10.50
2022-11-15T20:49:15.982Z,11.00
2022-11-15T20:51:28.475Z,10.10
2022-11-15T20:53:41.033Z,12.10
2022-11-15T20:55:55.989Z,9.70
2022-11-15T20:58:09.108Z,8.50
2022-11-15T21:00:26.078Z,9.50
2022-11-15T21:02:39.745Z,9.00
2022-11-15T21:04:52.926Z,9.30
2022-11-15T21:07:05.391Z,10.70
2022-11-15T21:09:34.797Z,9.30
2022-11-15T21:12:05.842Z,10.20
2022-11-15T21:14:18.705Z,12.50
2022-11-15T21:16:31.705Z,10.40
2022-11-15T21:18:45.477Z,21.10
2022-11-15T21:20:58.925Z,8.70
2022-11-15T21:23:11.417Z,10.90
2022-11-15T21:25:26.259Z,11.70
2022-11-15T21:27:39.316Z,10.80
2022-11-15T21:29:52.092Z,9.00
2022-11-15T21:32:07.099Z,6.90
2022-11-15T21:34:20.547Z,10.20
2022-11-15T21:36:33.088Z,11.50
2022-11-15T21:38:45.972Z,7.50
2022-11-15T21:41:00.242Z,7.80
2022-11-15T21:43:12.625Z,12.60
2022-11-15T21:45:26.333Z,9.90
2022-11-15T21:47:42.033Z,7.60
2022-11-15T21:49:58.917Z,8.70
2022-11-15T21:52:12.328Z,8.30
2022-11-15T21:54:25.173Z,8.50
2022-11-15T21:56:38.515Z,10.20
2022-11-15T21:58:51.700Z,8.70
2022-11-15T22:01:20.999Z,10.50
2022-11-15T22:03:33.905Z,7.00
2022-11-15T22:05:49.764Z,7.70
2022-11-15T22:08:02.635Z,10.10
2022-11-15T22:10:16.062Z,12.00
2022-11-15T22:12:29.922Z,7.30
2022-11-15T22:14:42.928Z,9.70
2022-11-15T22:16:56.397Z,9.50
2022-11-15T22:19:09.685Z,7.20
2022-11-15T22:21:23.616Z,9.70
2022-11-15T22:23:37.663Z,10.20
2022-11-15T22:25:50.846Z,8.80
2022-11-15T22:28:03.561Z,9.80
2022-11-15T22:30:17.621Z,9.70
2022-11-15T22:32:30.093Z,10.40
2022-11-15T22:34:43.002Z,9.00
2022-11-15T22:37:19.790Z,10.70
2022-11-15T22:39:30.009Z,10.00
2022-11-15T22:41:42.575Z,10.20
2022-11-15T22:43:55.697Z,9.40
2022-11-15T22:46:09.784Z,10.50
2022-11-15T22:48:23.769Z,12.30
2022-11-15T22:50:36.971Z,12.10
2022-11-15T22:52:49.654Z,11.10
2022-11-15T22:55:02.583Z,11.50
2022-11-15T22:57:15.337Z,13.30
2022-11-15T22:59:28.413Z,12.20
2022-11-15T23:01:41.083Z,11.90
2022-11-15T23:03:53.994Z,13.60
2022-11-15T23:06:10.397Z,13.20
2022-11-15T23:08:24.207Z,11.00
2022-11-15T23:10:53.262Z,11.10
2022-11-15T23:13:20.420Z,12.40
2022-11-15T23:15:53.077Z,10.80
2022-11-15T23:18:05.855Z,10.00
2022-11-15T23:20:41.817Z,10.10
2022-11-15T23:22:52.590Z,13.20
2022-11-15T23:25:05.808Z,11.10
2022-11-15T23:27:20.999Z,15.10
2022-11-15T23:29:54.749Z,12.40
2022-11-15T23:32:24.645Z,11.10
2022-11-15T23:34:39.246Z,14.80
2022-11-15T23:36:52.431Z,12.10
2022-11-15T23:39:06.872Z,11.90
2022-11-15T23:41:19.390Z,11.40
2022-11-15T23:43:32.223Z,12.20
2022-11-15T23:45:45.707Z,14.40
2022-11-15T23:48:01.449Z,12.50
2022-11-15T23:50:15.388Z,13.50
2022-11-15T23:52:28.761Z,11.30
2022-11-15T23:54:41.382Z,13.20
2022-11-15T23:56:54.079Z,13.10
2022-11-15T23:59:07.139Z,14.10
